sensor_id;sensor_type;location;lat;lon;timestamp;temperature;humidity
10644;DHT22;5370;50.132;8.626;2023-04-03T00:01:29;5.60;70.70
10644;DHT22;5370;50.132;8.626;2023-04-03T00:03:55;5.60;70.50
10644;DHT22;5370;50.132;8.626;2023-04-03T00:06:21;5.70;70.50
10644;DHT22;5370;50.132;8.626;2023-04-03T00:08:47;5.70;70.40
10644;DHT22;5370;50.132;8.626;2023-04-03T00:11:12;5.70;70.10
10644;DHT22;5370;50.132;8.626;2023-04-03T00:13:38;5.80;70.00
10644;DHT22;5370;50.132;8.626;2023-04-03T00:16:05;5.80;69.70
10644;DHT22;5370;50.132;8.626;2023-04-03T00:18:31;5.80;69.70
10644;DHT22;5370;50.132;8.626;2023-04-03T00:20:56;5.90;69.80
10644;DHT22;5370;50.132;8.626;2023-04-03T00:23:23;5.90;69.70
10644;DHT22;5370;50.132;8.626;2023-04-03T00:25:51;5.90;69.60
10644;DHT22;5370;50.132;8.626;2023-04-03T00:28:17;5.90;69.50
10644;DHT22;5370;50.132;8.626;2023-04-03T00:30:43;5.90;69.40
10644;DHT22;5370;50.132;8.626;2023-04-03T00:33:12;6.00;69.30
10644;DHT22;5370;50.132;8.626;2023-04-03T00:35:37;6.00;70.00
10644;DHT22;5370;50.132;8.626;2023-04-03T00:38:03;6.00;69.30
10644;DHT22;5370;50.132;8.626;2023-04-03T00:40:34;6.00;69.30
10644;DHT22;5370;50.132;8.626;2023-04-03T00:42:59;6.10;69.40
10644;DHT22;5370;50.132;8.626;2023-04-03T00:45:29;6.10;69.40
10644;DHT22;5370;50.132;8.626;2023-04-03T00:47:56;6.10;69.20
10644;DHT22;5370;50.132;8.626;2023-04-03T00:50:22;6.00;69.10
10644;DHT22;5370;50.132;8.626;2023-04-03T00:52:48;6.00;69.10
10644;DHT22;5370;50.132;8.626;2023-04-03T00:55:15;6.00;69.10
10644;DHT22;5370;50.132;8.626;2023-04-03T00:57:41;6.00;69.10
10644;DHT22;5370;50.132;8.626;2023-04-03T01:00:11;6.00;69.10
10644;DHT22;5370;50.132;8.626;2023-04-03T01:02:37;6.00;69.10
10644;DHT22;5370;50.132;8.626;2023-04-03T01:05:06;6.10;69.20
10644;DHT22;5370;50.132;8.626;2023-04-03T01:07:32;6.10;69.30
10644;DHT22;5370;50.132;8.626;2023-04-03T01:10:01;6.10;69.30
10644;DHT22;5370;50.132;8.626;2023-04-03T01:12:39;6.10;69.30
10644;DHT22;5370;50.132;8.626;2023-04-03T01:15:09;6.10;69.40
10644;DHT22;5370;50.132;8.626;2023-04-03T01:17:40;6.10;69.40
10644;DHT22;5370;50.132;8.626;2023-04-03T01:20:35;6.10;69.40
10644;DHT22;5370;50.132;8.626;2023-04-03T01:25:36;6.00;69.30
10644;DHT22;5370;50.132;8.626;2023-04-03T01:28:03;6.00;69.30
10644;DHT22;5370;50.132;8.626;2023-04-03T01:30:35;6.00;69.40
10644;DHT22;5370;50.132;8.626;2023-04-03T01:33:01;6.00;69.50
10644;DHT22;5370;50.132;8.626;2023-04-03T01:35:27;6.00;69.50
10644;DHT22;5370;50.132;8.626;2023-04-03T01:37:53;6.00;69.40
10644;DHT22;5370;50.132;8.626;2023-04-03T01:40:18;5.90;69.40
10644;DHT22;5370;50.132;8.626;2023-04-03T01:42:44;5.90;69.50
10644;DHT22;5370;50.132;8.626;2023-04-03T01:45:10;5.90;69.60
10644;DHT22;5370;50.132;8.626;2023-04-03T01:47:35;5.90;69.70
10644;DHT22;5370;50.132;8.626;2023-04-03T01:50:01;5.90;69.80
10644;DHT22;5370;50.132;8.626;2023-04-03T01:52:26;5.90;70.00
10644;DHT22;5370;50.132;8.626;2023-04-03T01:54:52;5.90;70.20
10644;DHT22;5370;50.132;8.626;2023-04-03T01:57:17;5.80;70.20
10644;DHT22;5370;50.132;8.626;2023-04-03T01:59:43;5.80;70.40
10644;DHT22;5370;50.132;8.626;2023-04-03T02:02:08;5.80;70.50
10644;DHT22;5370;50.132;8.626;2023-04-03T02:04:34;5.80;70.70
10644;DHT22;5370;50.132;8.626;2023-04-03T02:07:00;5.80;70.90
10644;DHT22;5370;50.132;8.626;2023-04-03T02:09:25;5.80;71.20
10644;DHT22;5370;50.132;8.626;2023-04-03T02:11:52;5.70;71.20
10644;DHT22;5370;50.132;8.626;2023-04-03T02:14:17;5.70;71.50
10644;DHT22;5370;50.132;8.626;2023-04-03T02:16:43;5.70;71.60
10644;DHT22;5370;50.132;8.626;2023-04-03T02:19:09;5.70;71.90
10644;DHT22;5370;50.132;8.626;2023-04-03T02:21:34;5.70;72.10
10644;DHT22;5370;50.132;8.626;2023-04-03T02:24:00;5.70;72.10
10644;DHT22;5370;50.132;8.626;2023-04-03T02:26:25;5.70;72.30
10644;DHT22;5370;50.132;8.626;2023-04-03T02:28:51;5.70;72.40
10644;DHT22;5370;50.132;8.626;2023-04-03T02:31:17;5.70;72.60
10644;DHT22;5370;50.132;8.626;2023-04-03T02:33:43;5.70;72.70
10644;DHT22;5370;50.132;8.626;2023-04-03T02:36:09;5.70;72.80
10644;DHT22;5370;50.132;8.626;2023-04-03T02:38:35;5.60;72.80
10644;DHT22;5370;50.132;8.626;2023-04-03T02:41:08;5.60;73.00
10644;DHT22;5370;50.132;8.626;2023-04-03T02:43:34;5.60;73.10
10644;DHT22;5370;50.132;8.626;2023-04-03T02:46:00;5.60;73.20
10644;DHT22;5370;50.132;8.626;2023-04-03T02:48:25;5.60;73.30
10644;DHT22;5370;50.132;8.626;2023-04-03T02:50:51;5.60;73.40
10644;DHT22;5370;50.132;8.626;2023-04-03T02:53:17;5.60;73.50
10644;DHT22;5370;50.132;8.626;2023-04-03T02:55:44;5.60;73.50
10644;DHT22;5370;50.132;8.626;2023-04-03T02:58:09;5.60;73.60
10644;DHT22;5370;50.132;8.626;2023-04-03T03:00:36;5.60;73.60
10644;DHT22;5370;50.132;8.626;2023-04-03T03:03:01;5.60;73.60
10644;DHT22;5370;50.132;8.626;2023-04-03T03:05:27;5.60;73.70
10644;DHT22;5370;50.132;8.626;2023-04-03T03:07:53;5.60;73.80
10644;DHT22;5370;50.132;8.626;2023-04-03T03:10:18;5.50;73.70
10644;DHT22;5370;50.132;8.626;2023-04-03T03:12:44;5.50;73.80
10644;DHT22;5370;50.132;8.626;2023-04-03T03:15:10;5.50;73.90
10644;DHT22;5370;50.132;8.626;2023-04-03T03:17:35;5.50;74.00
10644;DHT22;5370;50.132;8.626;2023-04-03T03:20:02;5.50;74.00
10644;DHT22;5370;50.132;8.626;2023-04-03T03:22:28;5.40;73.90
10644;DHT22;5370;50.132;8.626;2023-04-03T03:24:54;5.40;73.70
10644;DHT22;5370;50.132;8.626;2023-04-03T03:27:20;5.40;73.60
10644;DHT22;5370;50.132;8.626;2023-04-03T03:29:46;5.30;73.10
10644;DHT22;5370;50.132;8.626;2023-04-03T03:32:11;5.30;72.80
10644;DHT22;5370;50.132;8.626;2023-04-03T03:34:37;5.30;72.30
10644;DHT22;5370;50.132;8.626;2023-04-03T03:37:02;5.20;71.50
10644;DHT22;5370;50.132;8.626;2023-04-03T03:39:28;5.20;70.90
10644;DHT22;5370;50.132;8.626;2023-04-03T03:41:54;5.20;70.60
10644;DHT22;5370;50.132;8.626;2023-04-03T03:44:20;5.10;69.90
10644;DHT22;5370;50.132;8.626;2023-04-03T03:46:46;5.00;69.40
10644;DHT22;5370;50.132;8.626;2023-04-03T03:49:11;5.00;69.30
10644;DHT22;5370;50.132;8.626;2023-04-03T03:51:37;5.00;69.20
10644;DHT22;5370;50.132;8.626;2023-04-03T03:54:04;4.90;68.80
10644;DHT22;5370;50.132;8.626;2023-04-03T03:56:29;4.90;69.00
10644;DHT22;5370;50.132;8.626;2023-04-03T03:58:55;4.90;69.20
10644;DHT22;5370;50.132;8.626;2023-04-03T04:01:22;4.90;69.30
10644;DHT22;5370;50.132;8.626;2023-04-03T04:03:47;4.90;69.20
10644;DHT22;5370;50.132;8.626;2023-04-03T04:06:13;4.80;68.90
10644;DHT22;5370;50.132;8.626;2023-04-03T04:08:39;4.80;68.70
10644;DHT22;5370;50.132;8.626;2023-04-03T04:11:05;4.80;68.60
10644;DHT22;5370;50.132;8.626;2023-04-03T04:13:30;4.80;68.60
10644;DHT22;5370;50.132;8.626;2023-04-03T04:15:56;4.80;68.70
10644;DHT22;5370;50.132;8.626;2023-04-03T04:18:21;4.70;68.50
10644;DHT22;5370;50.132;8.626;2023-04-03T04:20:48;4.70;68.60
10644;DHT22;5370;50.132;8.626;2023-04-03T04:23:13;4.70;68.60
10644;DHT22;5370;50.132;8.626;2023-04-03T04:25:40;4.60;68.50
10644;DHT22;5370;50.132;8.626;2023-04-03T04:28:05;4.50;68.40
10644;DHT22;5370;50.132;8.626;2023-04-03T04:30:31;4.50;68.60
10644;DHT22;5370;50.132;8.626;2023-04-03T04:32:56;4.40;69.20
10644;DHT22;5370;50.132;8.626;2023-04-03T04:35:22;4.30;68.60
10644;DHT22;5370;50.132;8.626;2023-04-03T04:37:48;4.30;68.90
10644;DHT22;5370;50.132;8.626;2023-04-03T04:40:13;4.30;69.00
10644;DHT22;5370;50.132;8.626;2023-04-03T04:42:39;4.20;69.10
10644;DHT22;5370;50.132;8.626;2023-04-03T04:45:05;4.20;69.30
10644;DHT22;5370;50.132;8.626;2023-04-03T04:47:30;4.10;69.40
10644;DHT22;5370;50.132;8.626;2023-04-03T04:49:56;4.10;69.60
10644;DHT22;5370;50.132;8.626;2023-04-03T04:52:22;4.10;69.80
10644;DHT22;5370;50.132;8.626;2023-04-03T04:54:47;4.10;70.00
10644;DHT22;5370;50.132;8.626;2023-04-03T04:57:13;4.00;70.00
10644;DHT22;5370;50.132;8.626;2023-04-03T04:59:38;4.00;70.10
10644;DHT22;5370;50.132;8.626;2023-04-03T05:02:04;4.00;70.10
10644;DHT22;5370;50.132;8.626;2023-04-03T05:04:29;4.00;70.20
10644;DHT22;5370;50.132;8.626;2023-04-03T05:06:55;4.00;70.20
10644;DHT22;5370;50.132;8.626;2023-04-03T05:09:21;4.00;70.30
10644;DHT22;5370;50.132;8.626;2023-04-03T05:11:46;4.00;70.50
10644;DHT22;5370;50.132;8.626;2023-04-03T05:14:12;4.00;70.60
10644;DHT22;5370;50.132;8.626;2023-04-03T05:16:37;4.00;70.80
10644;DHT22;5370;50.132;8.626;2023-04-03T05:19:03;4.00;71.00
10644;DHT22;5370;50.132;8.626;2023-04-03T05:21:29;4.00;71.10
10644;DHT22;5370;50.132;8.626;2023-04-03T05:23:58;4.00;71.20
10644;DHT22;5370;50.132;8.626;2023-04-03T05:26:24;4.00;71.20
10644;DHT22;5370;50.132;8.626;2023-04-03T05:28:51;4.00;71.10
10644;DHT22;5370;50.132;8.626;2023-04-03T05:31:16;4.10;71.10
10644;DHT22;5370;50.132;8.626;2023-04-03T05:33:42;4.10;71.10
10644;DHT22;5370;50.132;8.626;2023-04-03T05:36:08;4.10;71.00
10644;DHT22;5370;50.132;8.626;2023-04-03T05:38:33;4.00;70.80
10644;DHT22;5370;50.132;8.626;2023-04-03T05:40:59;4.10;71.00
10644;DHT22;5370;50.132;8.626;2023-04-03T05:43:24;4.10;70.90
10644;DHT22;5370;50.132;8.626;2023-04-03T05:45:51;4.20;71.10
10644;DHT22;5370;50.132;8.626;2023-04-03T05:48:17;4.50;71.50
10644;DHT22;5370;50.132;8.626;2023-04-03T05:50:42;4.70;70.40
10644;DHT22;5370;50.132;8.626;2023-04-03T05:53:21;4.80;69.00
10644;DHT22;5370;50.132;8.626;2023-04-03T05:55:46;4.90;68.90
10644;DHT22;5370;50.132;8.626;2023-04-03T05:58:12;4.90;68.50
10644;DHT22;5370;50.132;8.626;2023-04-03T06:00:37;5.10;69.00
10644;DHT22;5370;50.132;8.626;2023-04-03T06:03:03;5.50;68.80
10644;DHT22;5370;50.132;8.626;2023-04-03T06:05:29;6.10;68.40
10644;DHT22;5370;50.132;8.626;2023-04-03T06:07:54;6.60;66.70
10644;DHT22;5370;50.132;8.626;2023-04-03T06:10:21;7.10;64.10
10644;DHT22;5370;50.132;8.626;2023-04-03T06:12:46;7.30;62.50
10644;DHT22;5370;50.132;8.626;2023-04-03T06:15:12;7.40;61.30
10644;DHT22;5370;50.132;8.626;2023-04-03T06:17:37;7.40;60.90
10644;DHT22;5370;50.132;8.626;2023-04-03T06:20:04;7.40;60.20
10644;DHT22;5370;50.132;8.626;2023-04-03T06:22:29;7.50;60.50
10644;DHT22;5370;50.132;8.626;2023-04-03T06:24:56;7.50;59.70
10644;DHT22;5370;50.132;8.626;2023-04-03T06:27:22;7.40;58.80
10644;DHT22;5370;50.132;8.626;2023-04-03T06:29:47;7.40;58.90
10644;DHT22;5370;50.132;8.626;2023-04-03T06:32:14;7.50;58.70
10644;DHT22;5370;50.132;8.626;2023-04-03T06:34:40;7.60;59.20
10644;DHT22;5370;50.132;8.626;2023-04-03T06:37:27;7.60;58.30
10644;DHT22;5370;50.132;8.626;2023-04-03T06:39:54;7.50;58.20
10644;DHT22;5370;50.132;8.626;2023-04-03T06:42:20;7.40;58.30
10644;DHT22;5370;50.132;8.626;2023-04-03T06:44:46;7.40;58.50
10644;DHT22;5370;50.132;8.626;2023-04-03T06:47:13;7.80;59.00
10644;DHT22;5370;50.132;8.626;2023-04-03T06:49:39;8.30;58.00
10644;DHT22;5370;50.132;8.626;2023-04-03T06:52:04;8.70;56.20
10644;DHT22;5370;50.132;8.626;2023-04-03T06:54:31;8.90;55.60
10644;DHT22;5370;50.132;8.626;2023-04-03T06:56:56;9.20;55.50
10644;DHT22;5370;50.132;8.626;2023-04-03T06:59:22;9.50;55.00
10644;DHT22;5370;50.132;8.626;2023-04-03T07:01:48;9.50;54.40
10644;DHT22;5370;50.132;8.626;2023-04-03T07:04:14;9.70;54.00
10644;DHT22;5370;50.132;8.626;2023-04-03T07:06:40;9.80;52.70
10644;DHT22;5370;50.132;8.626;2023-04-03T07:09:07;9.70;52.70
10644;DHT22;5370;50.132;8.626;2023-04-03T07:11:33;9.60;52.60
10644;DHT22;5370;50.132;8.626;2023-04-03T07:13:58;9.40;52.60
10644;DHT22;5370;50.132;8.626;2023-04-03T07:16:24;9.60;52.70
10644;DHT22;5370;50.132;8.626;2023-04-03T07:18:49;9.90;52.70
10644;DHT22;5370;50.132;8.626;2023-04-03T07:21:15;10.30;51.80
10644;DHT22;5370;50.132;8.626;2023-04-03T07:23:41;10.50;50.00
10644;DHT22;5370;50.132;8.626;2023-04-03T07:26:06;10.50;49.90
10644;DHT22;5370;50.132;8.626;2023-04-03T07:28:33;10.70;50.50
10644;DHT22;5370;50.132;8.626;2023-04-03T07:31:06;10.70;49.50
10644;DHT22;5370;50.132;8.626;2023-04-03T07:33:34;10.60;49.00
10644;DHT22;5370;50.132;8.626;2023-04-03T07:36:00;10.20;49.10
10644;DHT22;5370;50.132;8.626;2023-04-03T07:38:27;9.80;50.90
10644;DHT22;5370;50.132;8.626;2023-04-03T07:40:52;9.50;51.50
10644;DHT22;5370;50.132;8.626;2023-04-03T07:43:19;9.20;52.30
10644;DHT22;5370;50.132;8.626;2023-04-03T07:45:46;9.20;53.00
10644;DHT22;5370;50.132;8.626;2023-04-03T07:48:15;9.20;53.20
10644;DHT22;5370;50.132;8.626;2023-04-03T07:50:43;9.30;53.10
10644;DHT22;5370;50.132;8.626;2023-04-03T07:53:08;9.50;53.00
10644;DHT22;5370;50.132;8.626;2023-04-03T07:55:34;9.70;52.50
10644;DHT22;5370;50.132;8.626;2023-04-03T07:58:05;9.90;51.90
10644;DHT22;5370;50.132;8.626;2023-04-03T08:00:31;10.10;50.60
10644;DHT22;5370;50.132;8.626;2023-04-03T08:02:57;10.50;49.20
10644;DHT22;5370;50.132;8.626;2023-04-03T08:05:22;10.70;49.00
10644;DHT22;5370;50.132;8.626;2023-04-03T08:07:48;11.10;49.50
10644;DHT22;5370;50.132;8.626;2023-04-03T08:10:14;11.60;48.60
10644;DHT22;5370;50.132;8.626;2023-04-03T08:12:40;11.90;47.50
10644;DHT22;5370;50.132;8.626;2023-04-03T08:15:07;12.00;47.40
10644;DHT22;5370;50.132;8.626;2023-04-03T08:17:33;12.00;46.10
10644;DHT22;5370;50.132;8.626;2023-04-03T08:19:59;12.30;46.30
10644;DHT22;5370;50.132;8.626;2023-04-03T08:22:24;12.70;44.10
10644;DHT22;5370;50.132;8.626;2023-04-03T08:24:50;13.10;43.70
10644;DHT22;5370;50.132;8.626;2023-04-03T08:27:16;13.90;43.60
10644;DHT22;5370;50.132;8.626;2023-04-03T08:29:41;14.60;42.60
10644;DHT22;5370;50.132;8.626;2023-04-03T08:32:07;15.10;41.00
10644;DHT22;5370;50.132;8.626;2023-04-03T08:34:32;14.60;39.50
10644;DHT22;5370;50.132;8.626;2023-04-03T08:37:02;13.60;39.70
10644;DHT22;5370;50.132;8.626;2023-04-03T08:39:28;12.60;40.80
10644;DHT22;5370;50.132;8.626;2023-04-03T08:41:56;11.60;41.90
10644;DHT22;5370;50.132;8.626;2023-04-03T08:47:38;10.20;44.20
10644;DHT22;5370;50.132;8.626;2023-04-03T08:50:07;9.70;46.50
10644;DHT22;5370;50.132;8.626;2023-04-03T08:52:43;9.20;47.10
10644;DHT22;5370;50.132;8.626;2023-04-03T08:55:27;9.00;48.20
10644;DHT22;5370;50.132;8.626;2023-04-03T08:58:10;8.90;48.80
10644;DHT22;5370;50.132;8.626;2023-04-03T09:01:02;8.70;48.80
10644;DHT22;5370;50.132;8.626;2023-04-03T09:03:31;8.50;49.50
10644;DHT22;5370;50.132;8.626;2023-04-03T09:08:46;8.20;49.90
10644;DHT22;5370;50.132;8.626;2023-04-03T09:11:25;7.90;50.50
10644;DHT22;5370;50.132;8.626;2023-04-03T09:13:59;7.80;51.30
10644;DHT22;5370;50.132;8.626;2023-04-03T09:16:39;7.70;51.60
10644;DHT22;5370;50.132;8.626;2023-04-03T09:22:21;7.50;52.10
10644;DHT22;5370;50.132;8.626;2023-04-03T09:25:16;7.50;51.90
10644;DHT22;5370;50.132;8.626;2023-04-03T09:27:43;7.40;52.10
10644;DHT22;5370;50.132;8.626;2023-04-03T09:30:17;7.40;52.40
10644;DHT22;5370;50.132;8.626;2023-04-03T09:32:48;7.40;52.20
10644;DHT22;5370;50.132;8.626;2023-04-03T09:35:27;7.40;52.70
10644;DHT22;5370;50.132;8.626;2023-04-03T09:38:00;7.50;53.10
10644;DHT22;5370;50.132;8.626;2023-04-03T09:42:56;7.70;53.10
10644;DHT22;5370;50.132;8.626;2023-04-03T09:45:33;7.80;52.70
10644;DHT22;5370;50.132;8.626;2023-04-03T09:53:41;7.80;52.00
10644;DHT22;5370;50.132;8.626;2023-04-03T09:58:40;8.20;51.40
10644;DHT22;5370;50.132;8.626;2023-04-03T10:01:30;8.20;50.60
10644;DHT22;5370;50.132;8.626;2023-04-03T10:04:14;8.30;50.00
10644;DHT22;5370;50.132;8.626;2023-04-03T10:06:44;8.20;49.30
10644;DHT22;5370;50.132;8.626;2023-04-03T10:09:26;8.20;49.50
10644;DHT22;5370;50.132;8.626;2023-04-03T10:12:04;8.30;49.00
10644;DHT22;5370;50.132;8.626;2023-04-03T10:14:31;8.10;48.80
10644;DHT22;5370;50.132;8.626;2023-04-03T10:20:48;8.10;49.30
10644;DHT22;5370;50.132;8.626;2023-04-03T10:25:48;7.90;49.10
10644;DHT22;5370;50.132;8.626;2023-04-03T10:28:31;7.90;49.30
10644;DHT22;5370;50.132;8.626;2023-04-03T10:31:14;7.90;49.50
10644;DHT22;5370;50.132;8.626;2023-04-03T10:39:10;8.10;48.80
10644;DHT22;5370;50.132;8.626;2023-04-03T10:41:51;8.20;49.00
10644;DHT22;5370;50.132;8.626;2023-04-03T10:45:21;8.20;48.20
10644;DHT22;5370;50.132;8.626;2023-04-03T10:47:24;8.20;48.00
10644;DHT22;5370;50.132;8.626;2023-04-03T10:52:46;8.20;47.80
10644;DHT22;5370;50.132;8.626;2023-04-03T10:57:39;8.20;47.60
10644;DHT22;5370;50.132;8.626;2023-04-03T11:00:16;8.20;48.10
10644;DHT22;5370;50.132;8.626;2023-04-03T11:02:56;8.30;47.80
10644;DHT22;5370;50.132;8.626;2023-04-03T11:05:40;8.30;47.30
10644;DHT22;5370;50.132;8.626;2023-04-03T11:11:09;8.30;47.30
10644;DHT22;5370;50.132;8.626;2023-04-03T11:16:17;8.30;46.60
10644;DHT22;5370;50.132;8.626;2023-04-03T11:18:52;8.30;46.00
10644;DHT22;5370;50.132;8.626;2023-04-03T11:21:23;8.40;46.40
10644;DHT22;5370;50.132;8.626;2023-04-03T11:23:51;8.50;46.10
10644;DHT22;5370;50.132;8.626;2023-04-03T11:26:27;8.60;45.20
10644;DHT22;5370;50.132;8.626;2023-04-03T11:29:08;8.70;44.70
10644;DHT22;5370;50.132;8.626;2023-04-03T11:34:37;8.70;44.60
10644;DHT22;5370;50.132;8.626;2023-04-03T11:37:41;8.80;44.50
10644;DHT22;5370;50.132;8.626;2023-04-03T11:42:42;8.90;43.40
10644;DHT22;5370;50.132;8.626;2023-04-03T11:50:57;9.00;42.50
10644;DHT22;5370;50.132;8.626;2023-04-03T11:55:57;9.10;42.00
10644;DHT22;5370;50.132;8.626;2023-04-03T12:00:55;9.10;41.10
10644;DHT22;5370;50.132;8.626;2023-04-03T12:13:36;9.10;41.30
10644;DHT22;5370;50.132;8.626;2023-04-03T12:16:03;9.20;42.00
10644;DHT22;5370;50.132;8.626;2023-04-03T12:18:42;9.30;41.50
10644;DHT22;5370;50.132;8.626;2023-04-03T12:21:12;9.40;41.10
10644;DHT22;5370;50.132;8.626;2023-04-03T12:37:43;9.30;41.00
10644;DHT22;5370;50.132;8.626;2023-04-03T12:48:52;9.40;40.90
10644;DHT22;5370;50.132;8.626;2023-04-03T12:51:32;9.50;40.90
10644;DHT22;5370;50.132;8.626;2023-04-03T12:54:12;9.50;40.30
10644;DHT22;5370;50.132;8.626;2023-04-03T12:56:38;9.40;39.90
10644;DHT22;5370;50.132;8.626;2023-04-03T12:59:25;9.40;40.30
10644;DHT22;5370;50.132;8.626;2023-04-03T13:01:55;9.40;41.00
10644;DHT22;5370;50.132;8.626;2023-04-03T13:04:22;9.50;40.40
10644;DHT22;5370;50.132;8.626;2023-04-03T13:06:48;9.60;40.70
10644;DHT22;5370;50.132;8.626;2023-04-03T13:09:29;9.70;40.60
10644;DHT22;5370;50.132;8.626;2023-04-03T13:12:00;9.80;40.90
10644;DHT22;5370;50.132;8.626;2023-04-03T13:14:27;9.80;40.90
10644;DHT22;5370;50.132;8.626;2023-04-03T13:17:09;9.80;40.00
10644;DHT22;5370;50.132;8.626;2023-04-03T13:19:36;9.90;40.30
10644;DHT22;5370;50.132;8.626;2023-04-03T13:22:07;10.00;39.70
10644;DHT22;5370;50.132;8.626;2023-04-03T13:24:37;10.10;39.60
10644;DHT22;5370;50.132;8.626;2023-04-03T13:27:06;10.10;38.40
10644;DHT22;5370;50.132;8.626;2023-04-03T13:29:35;9.90;39.10
10644;DHT22;5370;50.132;8.626;2023-04-03T13:32:03;9.90;39.70
10644;DHT22;5370;50.132;8.626;2023-04-03T13:34:45;9.80;40.10
10644;DHT22;5370;50.132;8.626;2023-04-03T13:37:32;9.90;40.30
10644;DHT22;5370;50.132;8.626;2023-04-03T13:42:35;9.70;39.50
10644;DHT22;5370;50.132;8.626;2023-04-03T13:45:22;9.60;39.50
10644;DHT22;5370;50.132;8.626;2023-04-03T13:47:51;9.50;40.00
10644;DHT22;5370;50.132;8.626;2023-04-03T13:50:22;9.50;40.00
10644;DHT22;5370;50.132;8.626;2023-04-03T13:53:11;9.50;40.10
10644;DHT22;5370;50.132;8.626;2023-04-03T13:56:05;9.50;40.20
10644;DHT22;5370;50.132;8.626;2023-04-03T13:58:33;9.50;39.90
10644;DHT22;5370;50.132;8.626;2023-04-03T14:01:14;9.50;40.00
10644;DHT22;5370;50.132;8.626;2023-04-03T14:03:43;9.50;40.00
10644;DHT22;5370;50.132;8.626;2023-04-03T14:06:14;9.40;39.90
10644;DHT22;5370;50.132;8.626;2023-04-03T14:08:41;9.40;39.90
10644;DHT22;5370;50.132;8.626;2023-04-03T14:11:13;9.50;40.00
10644;DHT22;5370;50.132;8.626;2023-04-03T14:13:43;9.60;40.00
10644;DHT22;5370;50.132;8.626;2023-04-03T14:16:17;9.70;39.40
10644;DHT22;5370;50.132;8.626;2023-04-03T14:18:45;9.70;38.90
10644;DHT22;5370;50.132;8.626;2023-04-03T14:21:12;9.80;38.70
10644;DHT22;5370;50.132;8.626;2023-04-03T14:23:39;9.80;38.20
10644;DHT22;5370;50.132;8.626;2023-04-03T14:26:13;9.70;38.50
10644;DHT22;5370;50.132;8.626;2023-04-03T14:28:41;9.70;38.40
10644;DHT22;5370;50.132;8.626;2023-04-03T14:31:07;9.60;38.60
10644;DHT22;5370;50.132;8.626;2023-04-03T14:33:33;9.60;38.20
10644;DHT22;5370;50.132;8.626;2023-04-03T14:36:02;9.60;38.20
10644;DHT22;5370;50.132;8.626;2023-04-03T14:38:31;9.70;38.20
10644;DHT22;5370;50.132;8.626;2023-04-03T14:40:58;9.80;38.00
10644;DHT22;5370;50.132;8.626;2023-04-03T14:43:23;9.80;38.20
10644;DHT22;5370;50.132;8.626;2023-04-03T14:45:49;9.90;38.50
10644;DHT22;5370;50.132;8.626;2023-04-03T14:48:19;9.90;38.70
10644;DHT22;5370;50.132;8.626;2023-04-03T14:50:45;10.00;38.30
10644;DHT22;5370;50.132;8.626;2023-04-03T14:53:12;10.00;38.10
10644;DHT22;5370;50.132;8.626;2023-04-03T14:55:41;10.00;37.20
10644;DHT22;5370;50.132;8.626;2023-04-03T14:58:11;10.00;37.20
10644;DHT22;5370;50.132;8.626;2023-04-03T15:00:38;10.00;37.20
10644;DHT22;5370;50.132;8.626;2023-04-03T15:03:03;10.00;37.10
10644;DHT22;5370;50.132;8.626;2023-04-03T15:05:29;10.00;37.30
10644;DHT22;5370;50.132;8.626;2023-04-03T15:07:56;10.00;37.40
10644;DHT22;5370;50.132;8.626;2023-04-03T15:10:28;10.00;37.00
10644;DHT22;5370;50.132;8.626;2023-04-03T15:12:54;10.00;36.70
10644;DHT22;5370;50.132;8.626;2023-04-03T15:15:21;10.00;36.40
10644;DHT22;5370;50.132;8.626;2023-04-03T15:17:51;9.90;37.20
10644;DHT22;5370;50.132;8.626;2023-04-03T15:20:21;9.90;37.10
10644;DHT22;5370;50.132;8.626;2023-04-03T15:22:48;9.80;37.50
10644;DHT22;5370;50.132;8.626;2023-04-03T15:25:14;9.90;37.90
10644;DHT22;5370;50.132;8.626;2023-04-03T15:27:40;10.00;36.60
10644;DHT22;5370;50.132;8.626;2023-04-03T15:30:07;10.00;36.40
10644;DHT22;5370;50.132;8.626;2023-04-03T15:32:33;10.00;36.20
10644;DHT22;5370;50.132;8.626;2023-04-03T15:35:00;9.90;37.40
10644;DHT22;5370;50.132;8.626;2023-04-03T15:37:26;9.90;37.70
10644;DHT22;5370;50.132;8.626;2023-04-03T15:39:52;9.90;37.90
10644;DHT22;5370;50.132;8.626;2023-04-03T15:42:17;9.80;37.90
10644;DHT22;5370;50.132;8.626;2023-04-03T15:44:43;9.80;38.10
10644;DHT22;5370;50.132;8.626;2023-04-03T15:47:09;9.70;38.20
10644;DHT22;5370;50.132;8.626;2023-04-03T15:49:35;9.80;38.10
10644;DHT22;5370;50.132;8.626;2023-04-03T15:52:01;9.70;37.20
10644;DHT22;5370;50.132;8.626;2023-04-03T15:54:27;9.60;37.40
10644;DHT22;5370;50.132;8.626;2023-04-03T15:56:55;9.60;37.60
10644;DHT22;5370;50.132;8.626;2023-04-03T15:59:20;9.50;37.50
10644;DHT22;5370;50.132;8.626;2023-04-03T16:01:46;9.50;38.00
10644;DHT22;5370;50.132;8.626;2023-04-03T16:04:12;9.50;38.40
10644;DHT22;5370;50.132;8.626;2023-04-03T16:06:38;9.50;38.50
10644;DHT22;5370;50.132;8.626;2023-04-03T16:09:04;9.50;38.40
10644;DHT22;5370;50.132;8.626;2023-04-03T16:11:30;9.50;38.40
10644;DHT22;5370;50.132;8.626;2023-04-03T16:13:56;9.50;38.30
10644;DHT22;5370;50.132;8.626;2023-04-03T16:16:22;9.50;37.90
10644;DHT22;5370;50.132;8.626;2023-04-03T16:18:49;9.40;37.40
10644;DHT22;5370;50.132;8.626;2023-04-03T16:21:15;9.30;37.50
10644;DHT22;5370;50.132;8.626;2023-04-03T16:23:42;9.30;38.10
10644;DHT22;5370;50.132;8.626;2023-04-03T16:26:08;9.20;38.00
10644;DHT22;5370;50.132;8.626;2023-04-03T16:28:33;9.10;38.10
10644;DHT22;5370;50.132;8.626;2023-04-03T16:31:00;9.10;38.30
10644;DHT22;5370;50.132;8.626;2023-04-03T16:33:26;9.00;38.20
10644;DHT22;5370;50.132;8.626;2023-04-03T16:35:52;9.00;38.10
10644;DHT22;5370;50.132;8.626;2023-04-03T16:38:19;9.00;38.20
10644;DHT22;5370;50.132;8.626;2023-04-03T16:40:47;9.00;38.20
10644;DHT22;5370;50.132;8.626;2023-04-03T16:43:14;8.90;38.00
10644;DHT22;5370;50.132;8.626;2023-04-03T16:45:40;8.90;38.20
10644;DHT22;5370;50.132;8.626;2023-04-03T16:48:06;8.80;38.30
10644;DHT22;5370;50.132;8.626;2023-04-03T16:50:31;8.70;38.40
10644;DHT22;5370;50.132;8.626;2023-04-03T16:52:57;8.70;38.90
10644;DHT22;5370;50.132;8.626;2023-04-03T16:55:23;8.70;39.00
10644;DHT22;5370;50.132;8.626;2023-04-03T16:57:49;8.70;39.20
10644;DHT22;5370;50.132;8.626;2023-04-03T17:00:15;8.60;38.90
10644;DHT22;5370;50.132;8.626;2023-04-03T17:02:40;8.50;39.00
10644;DHT22;5370;50.132;8.626;2023-04-03T17:05:07;8.50;39.20
10644;DHT22;5370;50.132;8.626;2023-04-03T17:07:33;8.30;39.30
10644;DHT22;5370;50.132;8.626;2023-04-03T17:09:58;8.30;39.50
10644;DHT22;5370;50.132;8.626;2023-04-03T17:12:24;8.20;39.60
10644;DHT22;5370;50.132;8.626;2023-04-03T17:14:50;8.10;39.70
10644;DHT22;5370;50.132;8.626;2023-04-03T17:17:19;8.00;39.70
10644;DHT22;5370;50.132;8.626;2023-04-03T17:19:45;8.00;40.00
10644;DHT22;5370;50.132;8.626;2023-04-03T17:22:11;7.90;40.10
10644;DHT22;5370;50.132;8.626;2023-04-03T17:24:36;7.80;40.30
10644;DHT22;5370;50.132;8.626;2023-04-03T17:27:02;7.70;40.40
10644;DHT22;5370;50.132;8.626;2023-04-03T17:29:28;7.70;40.60
10644;DHT22;5370;50.132;8.626;2023-04-03T17:31:53;7.60;40.80
10644;DHT22;5370;50.132;8.626;2023-04-03T17:34:19;7.50;41.10
10644;DHT22;5370;50.132;8.626;2023-04-03T17:36:45;7.40;41.00
10644;DHT22;5370;50.132;8.626;2023-04-03T17:39:11;7.30;41.10
10644;DHT22;5370;50.132;8.626;2023-04-03T17:41:36;7.30;41.00
10644;DHT22;5370;50.132;8.626;2023-04-03T17:44:02;7.20;41.00